Terminal Aerodrome Forecast
Issued by NWS

Home | Current Version | Previous Version | Graphics & Text | Print | Product List | Glossary On
Versions: 1 2 3 4 5 6 7 8 9 10 11 12 13 14 15 16 17 18 19 20 21 22 23 24 25
598
FTUS43 KBIS 230801 AAB
TAFMOT
TAF AMD
KMOT 230801Z 2308/2406 33004KT 2SM BR BKN002
      TEMPO 2308/2312 1/2SM FG VV001
     FM231400 30017G24KT P6SM VCSH SCT050 BKN150
     FM232000 27017G24KT P6SM SCT120
     FM240200 25011KT P6SM SCT050=

USA.gov is the U.S. government's official web portal to all federal, state and local government web resources and services.